Caribbean Galaxy — 3EZV4 — position and weather

sailwx.info

Track history (hours):
 
Tides and Currents Weather Stations Pressure Air Temp Water Temp Dewpoint Dewpoint Depression Visibility Wind Speed Wind Dir Waves Ship Positions

Caribbean Galaxy

Last reported at 2014-Nov-28 03:25 UTC. Time now 2014-Nov-28 04:08 UTC.
Position N 37°43' E 120°00'.

Length 246 m; draft 12.6 m.

Type: Tanker. MMSI: 357449000.

Date/timePositionNaut miles runAvg speedWind from/ knotsBaromVisibWave heightAir tempDewpointWater temp
2014-Nov-28 03:25N 37°43' E 120°00'0 0.0
2014-Nov-28 02:25N 37°43' E 120°00'0 0.0
2014-Nov-28 01:13N 37°43' E 120°00'0 0.0
2014-Nov-28 00:25N 37°43' E 120°00'0 0.0
2014-Nov-27 23:25N 37°43' E 120°00'0 0.0
2014-Nov-27 22:31N 37°43' E 120°00'0 0.0
2014-Nov-27 21:31N 37°43' E 120°00'0 0.1
2014-Nov-27 20:31N 37°43' E 120°00'0 0.0
2014-Nov-27 19:31N 37°43' E 120°00'0 0.0
2014-Nov-27 18:25N 37°43' E 120°00'0 0.1
2014-Nov-27 17:31N 37°43' E 120°00'0 0.0
2014-Nov-27 16:31N 37°43' E 120°00'0 0.0
2014-Nov-27 15:31N 37°43' E 120°00'0 0.3
2014-Nov-27 14:33N 37°43' E 120°01'7 6.6
2014-Nov-27 13:34N 37°48' E 120°06'1010.3
2014-Nov-27 12:33N 37°56' E 120°15'10 9.8
2014-Nov-27 11:33N 38°01' E 120°26'9 9.5
2014-Nov-27 10:34N 38°02' E 120°37'4511.3
2014-Nov-27 06:33N 38°02' E 121°35'4011.9
2014-Nov-27 03:08N 38°01' E 122°26'149 5.8
2014-Nov-26 01:30N 35°56' E 120°45'1212.3
2014-Nov-26 00:33N 35°59' E 120°31'1110.9
2014-Nov-25 23:33N 36°02' E 120°18'3 0.1
2014-Nov-24 03:33N 36°03' E 120°15'2 1.5
2014-Nov-24 02:33N 36°02' E 120°16'6 6.0
2014-Nov-24 01:33N 36°01' E 120°23'6 6.4
2014-Nov-24 00:33N 35°60' E 120°31'8 7.5
2014-Nov-23 23:33N 35°58' E 120°40'  
Track history (hours):
 
Tides and Currents Weather Stations Pressure Air Temp Water Temp Dewpoint Dewpoint Depression Visibility Wind Speed Wind Dir Waves Ship Positions

Caribbean Galaxy

Last reported at 2014-Nov-28 03:25 UTC. Time now 2014-Nov-28 04:08 UTC.
Position N 37°43' E 120°00'.

Length 246 m; draft 12.6 m.

Type: Tanker. MMSI: 357449000.

Date/timePositionNaut miles runAvg speedWind from/ knotsBaromVisibWave heightAir tempDewpointWater temp
2014-Nov-28 03:25N 37°43' E 120°00'0 0.0
2014-Nov-28 02:25N 37°43' E 120°00'0 0.0
2014-Nov-28 01:13N 37°43' E 120°00'0 0.0
2014-Nov-28 00:25N 37°43' E 120°00'0 0.0
2014-Nov-27 23:25N 37°43' E 120°00'0 0.0
2014-Nov-27 22:31N 37°43' E 120°00'0 0.0
2014-Nov-27 21:31N 37°43' E 120°00'0 0.1
2014-Nov-27 20:31N 37°43' E 120°00'0 0.0
2014-Nov-27 19:31N 37°43' E 120°00'0 0.0
2014-Nov-27 18:25N 37°43' E 120°00'0 0.1
2014-Nov-27 17:31N 37°43' E 120°00'0 0.0
2014-Nov-27 16:31N 37°43' E 120°00'0 0.0
2014-Nov-27 15:31N 37°43' E 120°00'0 0.3
2014-Nov-27 14:33N 37°43' E 120°01'7 6.6
2014-Nov-27 13:34N 37°48' E 120°06'1010.3
2014-Nov-27 12:33N 37°56' E 120°15'10 9.8
2014-Nov-27 11:33N 38°01' E 120°26'9 9.5
2014-Nov-27 10:34N 38°02' E 120°37'4511.3
2014-Nov-27 06:33N 38°02' E 121°35'4011.9
2014-Nov-27 03:08N 38°01' E 122°26'149 5.8
2014-Nov-26 01:30N 35°56' E 120°45'1212.3
2014-Nov-26 00:33N 35°59' E 120°31'1110.9
2014-Nov-25 23:33N 36°02' E 120°18'3 0.1
2014-Nov-24 03:33N 36°03' E 120°15'2 1.5
2014-Nov-24 02:33N 36°02' E 120°16'6 6.0
2014-Nov-24 01:33N 36°01' E 120°23'6 6.4
2014-Nov-24 00:33N 35°60' E 120°31'8 7.5
2014-Nov-23 23:33N 35°58' E 120°40'  

Dump ship's entire track history